createdAt,value
2022-08-27T00:02:06.547Z,7.65
2022-08-27T00:04:34.797Z,7.88
2022-08-27T00:07:03.340Z,8.77
2022-08-27T00:09:31.952Z,8.18
2022-08-27T00:11:59.391Z,7.65
2022-08-27T00:14:28.626Z,8.48
2022-08-27T00:16:56.995Z,8.23
2022-08-27T00:19:24.588Z,8.85
2022-08-27T00:21:52.128Z,8.85
2022-08-27T00:24:19.410Z,8.82
2022-08-27T00:26:46.563Z,8.05
2022-08-27T00:29:13.827Z,9.13
2022-08-27T00:31:41.104Z,9.80
2022-08-27T00:34:08.563Z,8.98
2022-08-27T00:36:41.195Z,10.18
2022-08-27T00:39:08.589Z,10.25
2022-08-27T00:41:36.160Z,10.23
2022-08-27T00:44:03.625Z,10.52
2022-08-27T00:46:52.803Z,11.13
2022-08-27T00:49:28.630Z,10.57
2022-08-27T00:52:29.069Z,10.75
2022-08-27T00:55:20.580Z,11.02
2022-08-27T00:58:09.345Z,9.77
2022-08-27T01:00:37.565Z,10.43
2022-08-27T01:03:06.349Z,10.68
2022-08-27T01:05:35.421Z,9.70
2022-08-27T01:08:17.589Z,10.65
2022-08-27T01:13:17.429Z,9.80
2022-08-27T01:15:45.239Z,10.95
2022-08-27T01:18:14.471Z,11.00
2022-08-27T01:21:08.008Z,9.25
2022-08-27T01:24:07.001Z,8.88
2022-08-27T01:26:34.537Z,9.15
2022-08-27T01:29:01.782Z,9.25
2022-08-27T01:31:29.512Z,9.23
2022-08-27T01:34:06.326Z,9.00
2022-08-27T01:36:34.019Z,8.77
2022-08-27T01:39:01.405Z,9.40
2022-08-27T01:41:28.628Z,9.40
2022-08-27T01:43:56.160Z,8.43
2022-08-27T01:46:27.001Z,8.57
2022-08-27T01:48:55.481Z,9.40
2022-08-27T01:51:22.759Z,8.55
2022-08-27T01:53:50.101Z,8.70
2022-08-27T01:56:17.385Z,8.65
2022-08-27T01:58:45.012Z,8.30
2022-08-27T02:01:16.918Z,9.52
2022-08-27T02:03:47.355Z,8.55
2022-08-27T02:06:15.487Z,8.98
2022-08-27T02:08:42.842Z,8.02
2022-08-27T02:11:10.140Z,8.50
2022-08-27T02:13:37.682Z,8.10
2022-08-27T02:16:05.630Z,8.73
2022-08-27T02:18:35.243Z,8.82
2022-08-27T02:21:02.717Z,8.82
2022-08-27T02:23:29.887Z,8.45
2022-08-27T02:25:57.185Z,8.23
2022-08-27T02:28:24.440Z,8.52
2022-08-27T02:30:51.739Z,8.25
2022-08-27T02:33:19.004Z,8.90
2022-08-27T02:35:46.317Z,8.70
2022-08-27T02:38:14.295Z,8.95
2022-08-27T02:40:41.577Z,8.38
2022-08-27T02:43:09.654Z,8.73
2022-08-27T02:45:43.583Z,8.90
2022-08-27T02:48:11.320Z,8.90
2022-08-27T02:50:39.143Z,8.30
2022-08-27T02:53:07.434Z,8.75
2022-08-27T02:55:35.593Z,8.63
2022-08-27T02:58:04.859Z,9.30
2022-08-27T03:00:32.172Z,8.52
2022-08-27T03:02:59.872Z,9.20
2022-08-27T03:05:27.211Z,8.95
2022-08-27T03:07:54.905Z,8.40
2022-08-27T03:10:22.573Z,8.82
2022-08-27T03:12:50.501Z,9.23
2022-08-27T03:15:20.085Z,8.05
2022-08-27T03:18:06.241Z,8.20
2022-08-27T03:20:37.305Z,8.70
2022-08-27T03:23:04.435Z,8.63
2022-08-27T03:25:33.038Z,8.43
2022-08-27T03:28:01.455Z,8.27
2022-08-27T03:30:29.977Z,9.07
2022-08-27T03:32:57.120Z,8.30
2022-08-27T03:35:24.498Z,8.23
2022-08-27T03:37:51.822Z,8.45
2022-08-27T03:40:19.954Z,8.40
2022-08-27T03:42:47.104Z,9.40
2022-08-27T03:45:14.355Z,8.93
2022-08-27T03:47:41.819Z,8.70
2022-08-27T03:50:11.325Z,8.93
2022-08-27T03:52:38.623Z,7.90
2022-08-27T03:55:08.825Z,8.25
2022-08-27T03:57:36.549Z,9.10
2022-08-27T04:00:09.064Z,8.60
2022-08-27T04:02:36.359Z,8.57
2022-08-27T04:05:04.680Z,8.57
2022-08-27T04:07:33.130Z,9.80
2022-08-27T04:10:00.362Z,8.57
2022-08-27T04:12:28.667Z,9.65
2022-08-27T04:14:55.946Z,9.88
2022-08-27T04:17:23.176Z,9.77
2022-08-27T04:19:53.067Z,10.63
2022-08-27T04:22:21.091Z,10.45
2022-08-27T04:24:48.298Z,9.57
2022-08-27T04:27:16.538Z,9.07
2022-08-27T04:29:44.511Z,9.73
2022-08-27T04:32:15.234Z,9.80
2022-08-27T04:34:42.373Z,10.13
2022-08-27T04:37:09.535Z,9.32
2022-08-27T04:39:37.284Z,8.93
2022-08-27T04:42:04.660Z,9.02
2022-08-27T04:44:42.182Z,8.25
2022-08-27T04:47:09.418Z,9.00
2022-08-27T04:49:37.153Z,8.95
2022-08-27T04:52:05.143Z,8.77
2022-08-27T04:54:33.603Z,8.65
2022-08-27T04:57:02.934Z,9.10
2022-08-27T04:59:31.430Z,8.55
2022-08-27T05:01:59.661Z,8.70
2022-08-27T05:04:27.253Z,8.88
2022-08-27T05:06:56.221Z,8.32
2022-08-27T05:09:24.594Z,9.65
2022-08-27T05:11:55.545Z,8.68
2022-08-27T05:14:24.437Z,9.23
2022-08-27T05:16:51.735Z,8.63
2022-08-27T05:19:18.829Z,9.60
2022-08-27T05:21:51.775Z,8.27
2022-08-27T05:24:19.612Z,8.32
2022-08-27T05:26:48.627Z,8.73
2022-08-27T05:29:16.782Z,8.57
2022-08-27T05:31:44.338Z,8.65
2022-08-27T05:34:14.234Z,8.45
2022-08-27T05:36:49.366Z,9.05
2022-08-27T05:39:17.789Z,8.88
2022-08-27T05:41:45.300Z,8.35
2022-08-27T05:44:40.113Z,8.52
2022-08-27T05:46:59.528Z,8.77
2022-08-27T05:49:26.649Z,8.10
2022-08-27T05:51:53.723Z,8.43
2022-08-27T05:54:21.094Z,8.23
2022-08-27T05:56:50.033Z,7.93
2022-08-27T05:59:37.060Z,8.00
2022-08-27T06:02:06.240Z,8.25
2022-08-27T06:04:36.423Z,8.30
2022-08-27T06:07:04.525Z,8.65
2022-08-27T06:09:31.709Z,8.23
2022-08-27T06:12:01.641Z,8.93
2022-08-27T06:14:29.172Z,8.32
2022-08-27T06:16:57.048Z,7.82
2022-08-27T06:19:24.281Z,8.20
2022-08-27T06:22:00.807Z,9.25
2022-08-27T06:24:39.841Z,8.32
2022-08-27T06:27:08.692Z,7.93
2022-08-27T06:29:35.846Z,7.15
2022-08-27T06:32:03.697Z,8.00
2022-08-27T06:34:30.769Z,7.05
2022-08-27T06:36:58.055Z,7.75
2022-08-27T06:39:25.999Z,7.85
2022-08-27T06:41:53.439Z,7.72
2022-08-27T06:44:21.205Z,7.95
2022-08-27T06:46:48.524Z,7.65
2022-08-27T06:49:15.778Z,8.65
2022-08-27T06:51:47.064Z,8.30
2022-08-27T06:54:16.073Z,7.68
2022-08-27T06:56:44.737Z,7.72
2022-08-27T06:59:15.642Z,7.93
2022-08-27T07:01:49.414Z,8.03
2022-08-27T07:04:31.905Z,7.88
2022-08-27T07:07:04.476Z,7.70
2022-08-27T07:09:34.717Z,7.97
2022-08-27T07:12:02.192Z,7.78
2022-08-27T07:14:34.189Z,7.53
2022-08-27T07:17:05.005Z,7.15
2022-08-27T07:19:33.666Z,7.20
2022-08-27T07:22:00.863Z,6.97
2022-08-27T07:24:28.333Z,7.50
2022-08-27T07:26:55.513Z,7.70
2022-08-27T07:29:22.801Z,7.40
2022-08-27T07:31:50.067Z,6.30
2022-08-27T07:34:17.585Z,7.30
2022-08-27T07:36:44.697Z,7.38
2022-08-27T07:39:14.029Z,7.03
2022-08-27T07:42:00.205Z,6.57
2022-08-27T07:44:34.206Z,6.45
2022-08-27T07:47:02.529Z,7.35
2022-08-27T07:49:30.554Z,6.38
2022-08-27T07:51:58.182Z,7.35
2022-08-27T07:54:25.383Z,6.57
2022-08-27T07:56:55.024Z,6.55
2022-08-27T07:59:26.187Z,7.18
2022-08-27T08:01:56.033Z,6.63
2022-08-27T08:04:24.004Z,6.72
2022-08-27T08:06:51.865Z,6.55
2022-08-27T08:09:20.332Z,6.60
2022-08-27T08:11:47.632Z,6.03
2022-08-27T08:14:14.741Z,6.78
2022-08-27T08:16:41.850Z,6.95
2022-08-27T08:19:09.557Z,6.20
2022-08-27T08:21:38.698Z,6.05
2022-08-27T08:24:06.523Z,6.15
2022-08-27T08:26:34.128Z,5.93
2022-08-27T08:29:04.737Z,6.53
2022-08-27T08:31:32.173Z,6.13
2022-08-27T08:33:59.273Z,6.25
2022-08-27T08:36:26.390Z,6.13
2022-08-27T08:38:54.954Z,6.50
2022-08-27T08:41:24.520Z,5.53
2022-08-27T08:43:51.808Z,6.95
2022-08-27T08:46:53.334Z,6.10
2022-08-27T08:49:38.916Z,6.45
2022-08-27T08:52:30.896Z,6.05
2022-08-27T08:55:41.504Z,5.97
2022-08-27T08:58:39.102Z,6.30
2022-08-27T09:01:09.908Z,6.38
2022-08-27T09:06:21.620Z,5.68
2022-08-27T09:08:49.452Z,5.90
2022-08-27T09:11:43.354Z,4.82
2022-08-27T09:14:38.790Z,5.82
2022-08-27T09:17:11.312Z,5.03
2022-08-27T09:19:39.247Z,5.32
2022-08-27T09:22:20.707Z,4.70
2022-08-27T09:25:11.754Z,4.75
2022-08-27T09:27:42.979Z,5.43
2022-08-27T09:30:24.742Z,5.18
2022-08-27T09:33:01.906Z,4.63
2022-08-27T09:35:42.350Z,4.78
2022-08-27T09:38:14.105Z,4.53
2022-08-27T09:40:52.509Z,4.70
2022-08-27T09:43:27.094Z,4.53
2022-08-27T09:46:07.490Z,4.40
2022-08-27T09:48:37.717Z,4.00
2022-08-27T09:51:20.025Z,3.80
2022-08-27T09:54:04.406Z,4.13
2022-08-27T09:56:47.268Z,4.47
2022-08-27T09:59:29.016Z,4.43
2022-08-27T10:02:04.626Z,4.72
2022-08-27T10:04:50.739Z,4.18
2022-08-27T10:07:58.378Z,4.97
2022-08-27T10:10:46.900Z,4.70
2022-08-27T10:13:50.993Z,4.15
2022-08-27T10:17:03.131Z,4.38
2022-08-27T10:20:01.041Z,4.60
2022-08-27T10:23:19.733Z,4.20
2022-08-27T10:26:33.707Z,4.30
2022-08-27T10:29:36.052Z,4.50
2022-08-27T10:32:39.495Z,4.78
2022-08-27T10:36:02.093Z,4.72
2022-08-27T10:38:44.986Z,4.70
2022-08-27T10:41:31.137Z,4.68
2022-08-27T10:44:27.705Z,4.88
2022-08-27T10:47:43.729Z,5.43
2022-08-27T10:50:19.750Z,4.47
2022-08-27T10:52:55.028Z,4.30
2022-08-27T10:55:31.107Z,4.80
2022-08-27T10:58:52.613Z,4.05
2022-08-27T11:01:26.630Z,4.35
2022-08-27T11:04:15.091Z,4.95
2022-08-27T11:07:19.587Z,4.70
2022-08-27T11:10:04.732Z,4.18
2022-08-27T11:12:37.434Z,4.15
2022-08-27T11:15:13.570Z,4.20
2022-08-27T11:18:16.275Z,4.10
2022-08-27T11:21:30.250Z,4.03
2022-08-27T11:24:19.674Z,4.15
2022-08-27T11:26:49.592Z,4.30
2022-08-27T11:29:25.698Z,4.57
2022-08-27T11:32:30.433Z,4.10
2022-08-27T11:35:09.963Z,4.28
2022-08-27T11:38:13.170Z,4.32
2022-08-27T11:40:56.045Z,4.05
2022-08-27T11:43:28.802Z,4.50
2022-08-27T11:46:06.214Z,4.05
2022-08-27T11:48:42.220Z,4.03
2022-08-27T11:51:27.064Z,4.15
2022-08-27T11:54:10.929Z,4.65
2022-08-27T11:56:43.454Z,4.55
2022-08-27T11:59:23.627Z,4.70
2022-08-27T12:01:54.526Z,4.38
2022-08-27T12:04:30.778Z,4.13
2022-08-27T12:07:17.459Z,4.18
2022-08-27T12:09:56.898Z,4.50
2022-08-27T12:13:10.620Z,4.78
2022-08-27T12:16:20.488Z,4.18
2022-08-27T12:19:18.890Z,3.85
2022-08-27T12:22:03.923Z,4.32
2022-08-27T12:24:57.379Z,4.78
2022-08-27T12:27:34.588Z,4.80
2022-08-27T12:30:21.584Z,4.38
2022-08-27T12:32:54.526Z,4.40
2022-08-27T12:35:48.359Z,4.97
2022-08-27T12:38:53.706Z,4.70
2022-08-27T12:41:44.239Z,4.60
2022-08-27T12:46:59.458Z,4.13
2022-08-27T12:49:39.693Z,4.70
2022-08-27T12:53:05.559Z,4.65
2022-08-27T12:55:46.146Z,4.53
2022-08-27T12:58:31.937Z,4.35
2022-08-27T13:01:28.589Z,4.57
2022-08-27T13:03:57.218Z,4.25
2022-08-27T13:06:36.266Z,4.05
2022-08-27T13:09:08.739Z,4.10
2022-08-27T13:11:49.748Z,4.55
2022-08-27T13:14:20.864Z,4.65
2022-08-27T13:17:05.818Z,4.47
2022-08-27T13:19:51.469Z,4.60
2022-08-27T13:22:40.523Z,4.75
2022-08-27T13:25:21.166Z,5.15
2022-08-27T13:28:08.804Z,4.90
2022-08-27T13:30:46.819Z,4.95
2022-08-27T13:33:25.451Z,4.80
2022-08-27T13:35:52.655Z,4.88
2022-08-27T13:38:22.468Z,4.65
2022-08-27T13:40:59.758Z,4.30
2022-08-27T13:43:44.897Z,4.38
2022-08-27T13:46:24.380Z,4.95
2022-08-27T13:48:56.189Z,4.90
2022-08-27T13:51:34.602Z,4.63
2022-08-27T13:54:16.140Z,4.55
2022-08-27T14:02:10.254Z,5.30
2022-08-27T14:04:48.601Z,5.05
2022-08-27T14:07:25.617Z,5.25
2022-08-27T14:10:18.757Z,4.25
2022-08-27T14:13:06.136Z,4.88
2022-08-27T14:15:38.648Z,4.75
2022-08-27T14:18:58.022Z,5.22
2022-08-27T14:21:23.971Z,5.00
2022-08-27T14:23:53.194Z,4.80
2022-08-27T14:26:20.641Z,4.28
2022-08-27T14:28:48.542Z,4.50
2022-08-27T14:31:16.175Z,4.63
2022-08-27T14:33:43.505Z,4.75
2022-08-27T14:36:11.290Z,4.47
2022-08-27T14:38:42.784Z,4.70
2022-08-27T14:43:38.431Z,4.65
2022-08-27T14:46:12.056Z,4.97
2022-08-27T14:48:43.438Z,5.68
2022-08-27T14:51:28.862Z,4.40
2022-08-27T14:53:57.672Z,4.75
2022-08-27T14:56:26.169Z,5.25
2022-08-27T14:58:53.839Z,4.95
2022-08-27T15:01:25.439Z,4.70
2022-08-27T15:03:53.501Z,6.13
2022-08-27T15:06:23.579Z,4.80
2022-08-27T15:08:52.188Z,4.82
2022-08-27T15:11:26.664Z,5.15
2022-08-27T15:13:56.188Z,5.10
2022-08-27T15:16:35.199Z,4.60
2022-08-27T15:19:02.825Z,5.03
2022-08-27T15:21:31.191Z,4.35
2022-08-27T15:24:06.071Z,5.20
2022-08-27T15:26:34.827Z,4.97
2022-08-27T15:29:06.396Z,5.28
2022-08-27T15:31:35.098Z,4.75
2022-08-27T15:34:02.299Z,4.85
2022-08-27T15:36:29.393Z,4.90
2022-08-27T15:38:56.728Z,5.65
2022-08-27T15:41:27.279Z,4.68
2022-08-27T15:43:56.943Z,4.90
2022-08-27T15:46:25.762Z,5.00
2022-08-27T15:48:54.044Z,5.63
2022-08-27T15:51:31.534Z,4.53
2022-08-27T15:54:00.712Z,4.50
2022-08-27T15:56:32.540Z,4.68
2022-08-27T15:59:01.563Z,4.80
2022-08-27T16:01:37.816Z,4.43
2022-08-27T16:04:06.259Z,4.82
2022-08-27T16:06:34.998Z,4.90
2022-08-27T16:09:04.322Z,4.10
2022-08-27T16:11:32.500Z,4.93
2022-08-27T16:14:00.032Z,5.03
2022-08-27T16:16:32.085Z,5.40
2022-08-27T16:19:05.236Z,4.72
2022-08-27T16:21:34.899Z,5.00
2022-08-27T16:24:03.104Z,5.15
2022-08-27T16:26:30.227Z,5.30
2022-08-27T16:28:57.419Z,5.20
2022-08-27T16:31:24.905Z,4.80
2022-08-27T16:33:52.212Z,4.88
2022-08-27T16:36:20.154Z,5.32
2022-08-27T16:38:47.172Z,5.05
2022-08-27T16:41:14.343Z,4.75
2022-08-27T16:43:41.681Z,5.40
2022-08-27T16:46:08.817Z,4.82
2022-08-27T16:49:01.041Z,5.47
2022-08-27T16:51:45.105Z,5.05
2022-08-27T16:54:15.575Z,5.22
2022-08-27T16:56:46.196Z,5.07
2022-08-27T16:59:13.496Z,5.55
2022-08-27T17:01:41.953Z,5.38
2022-08-27T17:04:18.194Z,4.95
2022-08-27T17:06:54.888Z,4.82
2022-08-27T17:09:23.416Z,4.50
2022-08-27T17:11:57.579Z,4.82
2022-08-27T17:14:26.629Z,5.07
2022-08-27T17:16:54.161Z,4.93
2022-08-27T17:19:24.369Z,5.55
2022-08-27T17:21:52.493Z,5.03
2022-08-27T17:24:19.474Z,5.60
2022-08-27T17:26:46.610Z,5.30
2022-08-27T17:29:13.577Z,4.80
2022-08-27T17:31:42.700Z,6.10
2022-08-27T17:34:17.891Z,5.82
2022-08-27T17:36:46.316Z,6.45
2022-08-27T17:39:14.649Z,6.53
2022-08-27T17:41:45.635Z,6.22
2022-08-27T17:44:31.988Z,6.45
2022-08-27T17:47:02.918Z,7.35
2022-08-27T17:49:31.197Z,6.57
2022-08-27T17:52:02.491Z,7.50
2022-08-27T17:54:44.674Z,5.88
2022-08-27T17:57:25.084Z,6.60
2022-08-27T17:59:53.676Z,6.40
2022-08-27T18:02:38.837Z,6.28
2022-08-27T18:05:08.844Z,6.53
2022-08-27T18:07:39.858Z,6.35
2022-08-27T18:10:09.565Z,7.15
2022-08-27T18:12:36.919Z,6.68
2022-08-27T18:15:32.614Z,6.40
2022-08-27T18:18:00.329Z,6.30
2022-08-27T18:20:30.191Z,6.05
2022-08-27T18:22:58.093Z,6.90
2022-08-27T18:25:33.852Z,7.65
2022-08-27T18:28:09.941Z,8.05
2022-08-27T18:30:39.708Z,7.00
2022-08-27T18:33:07.199Z,7.03
2022-08-27T18:35:35.724Z,6.40
2022-08-27T18:38:03.909Z,7.55
2022-08-27T18:40:45.587Z,7.20
2022-08-27T18:43:14.798Z,7.20
2022-08-27T18:45:42.440Z,7.78
2022-08-27T18:48:22.471Z,6.63
2022-08-27T18:50:58.552Z,7.65
2022-08-27T18:53:31.053Z,7.63
2022-08-27T18:55:58.618Z,7.85
2022-08-27T18:58:26.668Z,7.60
2022-08-27T19:01:00.716Z,7.15
2022-08-27T19:03:51.872Z,7.93
2022-08-27T19:06:20.713Z,9.13
2022-08-27T19:08:49.675Z,7.32
2022-08-27T19:11:17.459Z,7.35
2022-08-27T19:13:44.552Z,8.60
2022-08-27T19:16:22.038Z,7.75
2022-08-27T19:18:49.156Z,7.55
2022-08-27T19:21:16.164Z,7.68
2022-08-27T19:23:43.553Z,7.72
2022-08-27T19:26:18.313Z,7.82
2022-08-27T19:28:45.969Z,8.02
2022-08-27T19:31:15.179Z,8.70
2022-08-27T19:33:44.036Z,10.32
2022-08-27T19:36:16.045Z,9.25
2022-08-27T19:38:45.113Z,9.70
2022-08-27T19:41:13.136Z,8.95
2022-08-27T19:43:44.651Z,8.63
2022-08-27T19:46:16.877Z,8.32
2022-08-27T19:48:44.065Z,9.20
2022-08-27T19:51:11.508Z,8.27
2022-08-27T19:53:39.157Z,8.55
2022-08-27T19:56:09.041Z,8.25
2022-08-27T19:58:36.543Z,9.27
2022-08-27T20:01:03.603Z,8.32
2022-08-27T20:03:30.729Z,8.48
2022-08-27T20:05:57.850Z,7.95
2022-08-27T20:08:25.010Z,8.63
2022-08-27T20:10:53.635Z,8.50
2022-08-27T20:13:20.709Z,8.77
2022-08-27T20:15:50.045Z,8.82
2022-08-27T20:18:18.671Z,9.18
2022-08-27T20:20:46.205Z,8.68
2022-08-27T20:23:15.756Z,8.85
2022-08-27T20:25:45.713Z,8.98
2022-08-27T20:28:37.660Z,8.35
2022-08-27T20:31:01.276Z,8.43
2022-08-27T20:33:28.561Z,9.13
2022-08-27T20:35:58.268Z,8.68
2022-08-27T20:38:25.748Z,8.55
2022-08-27T20:40:52.789Z,8.90
2022-08-27T20:43:19.974Z,9.23
2022-08-27T20:45:47.149Z,8.98
2022-08-27T20:48:14.860Z,9.93
2022-08-27T20:50:42.148Z,9.38
2022-08-27T20:53:09.242Z,9.45
2022-08-27T20:55:36.345Z,9.52
2022-08-27T20:58:22.217Z,10.40
2022-08-27T21:00:53.601Z,9.57
2022-08-27T21:03:21.233Z,9.77
2022-08-27T21:05:48.854Z,9.52
2022-08-27T21:08:18.495Z,9.95
2022-08-27T21:10:49.430Z,10.27
2022-08-27T21:13:17.543Z,9.00
2022-08-27T21:15:44.930Z,8.95
2022-08-27T21:18:13.020Z,8.88
2022-08-27T21:20:40.739Z,9.63
2022-08-27T21:23:08.497Z,9.88
2022-08-27T21:25:36.190Z,9.95
2022-08-27T21:28:09.718Z,10.48
2022-08-27T21:30:37.900Z,10.32
2022-08-27T21:33:05.336Z,9.90
2022-08-27T21:35:32.887Z,10.43
2022-08-27T21:38:01.446Z,9.52
2022-08-27T21:40:30.009Z,9.77
2022-08-27T21:42:58.337Z,10.25
2022-08-27T21:45:26.053Z,10.35
2022-08-27T21:47:54.148Z,10.05
2022-08-27T21:50:22.761Z,10.10
2022-08-27T21:52:50.958Z,11.20
2022-08-27T21:55:18.653Z,10.63
2022-08-27T21:57:46.386Z,10.23
2022-08-27T22:00:38.895Z,10.50
2022-08-27T22:03:10.479Z,11.43
2022-08-27T22:05:40.370Z,10.13
2022-08-27T22:08:09.379Z,10.75
2022-08-27T22:10:36.974Z,10.63
2022-08-27T22:13:04.490Z,11.23
2022-08-27T22:15:31.724Z,11.68
2022-08-27T22:17:59.238Z,11.15
2022-08-27T22:20:27.605Z,10.25
2022-08-27T22:22:55.045Z,10.63
2022-08-27T22:25:22.153Z,10.50
2022-08-27T22:27:49.279Z,10.98
2022-08-27T22:30:16.838Z,10.85
2022-08-27T22:32:44.073Z,11.18
2022-08-27T22:35:14.121Z,10.98
2022-08-27T22:37:41.676Z,11.45
2022-08-27T22:40:19.351Z,12.07
2022-08-27T22:42:48.342Z,12.27
2022-08-27T22:45:16.284Z,11.57
2022-08-27T22:47:43.744Z,11.77
2022-08-27T22:50:12.871Z,11.65
2022-08-27T22:52:44.062Z,12.02
2022-08-27T22:55:15.577Z,12.37
2022-08-27T22:57:42.830Z,11.18
2022-08-27T23:00:45.270Z,11.15
2022-08-27T23:03:20.311Z,11.82
2022-08-27T23:05:47.702Z,11.07
2022-08-27T23:08:15.424Z,11.43
2022-08-27T23:10:44.119Z,11.73
2022-08-27T23:13:13.384Z,11.20
2022-08-27T23:16:05.620Z,11.80
2022-08-27T23:18:33.376Z,11.80
2022-08-27T23:21:00.494Z,12.43
2022-08-27T23:23:30.757Z,11.55
2022-08-27T23:26:17.598Z,11.45
2022-08-27T23:28:45.391Z,11.68
2022-08-27T23:31:14.132Z,11.07
2022-08-27T23:33:41.611Z,12.23
2022-08-27T23:36:09.762Z,13.10
2022-08-27T23:38:37.507Z,12.15
2022-08-27T23:41:05.755Z,12.48
2022-08-27T23:43:32.955Z,13.20
2022-08-27T23:46:00.128Z,14.35
2022-08-27T23:48:27.427Z,13.32
2022-08-27T23:50:54.705Z,12.90
2022-08-27T23:53:22.102Z,12.65
2022-08-27T23:55:49.212Z,14.13
2022-08-27T23:58:16.409Z,14.10
